createdAt,value
2017-02-21T00:01:01.892Z,0
2017-02-21T00:02:11.261Z,0
2017-02-21T00:03:21.022Z,0
2017-02-21T00:04:30.359Z,0
2017-02-21T00:05:40.133Z,0
2017-02-21T00:06:49.916Z,0
2017-02-21T00:08:00.327Z,0
2017-02-21T00:09:09.656Z,0
2017-02-21T00:10:19.001Z,0
2017-02-21T00:11:29.199Z,0
2017-02-21T00:12:38.524Z,0
2017-02-21T00:13:48.153Z,0
2017-02-21T00:14:57.937Z,0
2017-02-21T00:16:07.250Z,0
2017-02-21T00:17:17.024Z,0
2017-02-21T00:18:26.352Z,0
2017-02-21T00:19:36.155Z,0
2017-02-21T00:20:45.488Z,0
2017-02-21T00:21:55.249Z,0
2017-02-21T00:23:04.578Z,0
2017-02-21T00:24:13.899Z,0
2017-02-21T00:25:23.256Z,0
2017-02-21T00:26:32.609Z,0
2017-02-21T00:27:43.254Z,0
2017-02-21T00:28:53.036Z,0
2017-02-21T00:30:02.357Z,0
2017-02-21T00:31:12.187Z,0
2017-02-21T00:32:21.979Z,0
2017-02-21T00:33:31.318Z,0
2017-02-21T00:34:40.653Z,0
2017-02-21T00:35:50.422Z,0
2017-02-21T00:37:00.772Z,0
2017-02-21T00:38:10.089Z,0
2017-02-21T00:39:19.399Z,0
2017-02-21T00:40:28.710Z,0
2017-02-21T00:41:39.355Z,0
2017-02-21T00:42:49.156Z,0
2017-02-21T00:43:58.488Z,0
2017-02-21T00:45:08.244Z,0
2017-02-21T00:46:17.565Z,0
2017-02-21T00:47:26.878Z,0
2017-02-21T00:48:36.248Z,0
2017-02-21T00:49:45.588Z,0
2017-02-21T00:50:55.802Z,0
2017-02-21T00:52:05.120Z,0
2017-02-21T00:53:14.444Z,0
2017-02-21T00:54:23.829Z,0
2017-02-21T00:55:33.162Z,0
2017-02-21T00:56:42.947Z,0
2017-02-21T00:57:52.277Z,0
2017-02-21T00:59:01.594Z,0
2017-02-21T01:00:10.966Z,0
2017-02-21T01:01:20.305Z,0
2017-02-21T01:02:30.067Z,0
2017-02-21T01:03:39.383Z,0
2017-02-21T01:04:49.203Z,0
2017-02-21T01:05:59.445Z,0
2017-02-21T01:07:09.225Z,0
2017-02-21T01:08:18.991Z,0
2017-02-21T01:09:28.773Z,0
2017-02-21T01:10:38.103Z,0
2017-02-21T01:11:48.355Z,0
2017-02-21T01:12:59.023Z,0
2017-02-21T01:14:08.356Z,0
2017-02-21T01:15:18.575Z,0
2017-02-21T01:16:27.899Z,0
2017-02-21T01:17:37.775Z,0
2017-02-21T01:18:47.534Z,0
2017-02-21T01:19:57.299Z,0
2017-02-21T01:21:06.609Z,0
2017-02-21T01:22:16.367Z,0
2017-02-21T01:23:25.751Z,0
2017-02-21T01:24:35.544Z,0
2017-02-21T01:25:45.749Z,0
2017-02-21T01:26:55.538Z,0
2017-02-21T01:28:05.308Z,0
2017-02-21T01:29:15.112Z,0
2017-02-21T01:30:24.436Z,0
2017-02-21T01:31:34.247Z,0
2017-02-21T01:32:43.572Z,0
2017-02-21T01:33:53.382Z,0
2017-02-21T01:35:02.775Z,0
2017-02-21T01:36:12.096Z,0
2017-02-21T01:37:21.465Z,0
2017-02-21T01:38:30.786Z,0
2017-02-21T01:39:40.100Z,0
2017-02-21T01:40:49.484Z,0
2017-02-21T01:41:59.274Z,0
2017-02-21T01:43:08.591Z,0
2017-02-21T01:44:18.340Z,0
2017-02-21T01:45:27.652Z,0
2017-02-21T01:46:37.214Z,0
2017-02-21T01:47:46.558Z,0
2017-02-21T01:48:56.353Z,0
2017-02-21T01:50:06.114Z,0
2017-02-21T01:51:15.863Z,0
2017-02-21T01:52:25.248Z,0
2017-02-21T01:53:34.586Z,0
2017-02-21T01:54:43.903Z,0
2017-02-21T01:55:53.215Z,0
2017-02-21T01:57:02.549Z,0
2017-02-21T01:58:11.914Z,0
2017-02-21T01:59:21.228Z,0
2017-02-21T02:00:30.561Z,0
2017-02-21T02:01:40.354Z,0
2017-02-21T02:02:50.119Z,0
2017-02-21T02:03:59.508Z,0
2017-02-21T02:05:08.829Z,0
2017-02-21T02:06:19.497Z,0
2017-02-21T02:07:29.710Z,0
2017-02-21T02:08:39.484Z,0
2017-02-21T02:09:49.438Z,0
2017-02-21T02:10:58.768Z,0
2017-02-21T02:12:08.960Z,0
2017-02-21T02:13:18.733Z,0
2017-02-21T02:14:28.054Z,0
2017-02-21T02:15:37.439Z,0
2017-02-21T02:16:46.785Z,0
2017-02-21T02:17:56.106Z,0
2017-02-21T02:19:05.450Z,0
2017-02-21T02:20:15.211Z,0
2017-02-21T02:21:25.017Z,0
2017-02-21T02:22:34.367Z,0
2017-02-21T02:23:43.683Z,0
2017-02-21T02:24:52.989Z,0
2017-02-21T02:26:02.753Z,0
2017-02-21T02:27:12.170Z,0
2017-02-21T02:28:22.372Z,0
2017-02-21T02:29:32.132Z,0
2017-02-21T02:30:41.450Z,0
2017-02-21T02:31:50.786Z,0
2017-02-21T02:33:00.154Z,0
2017-02-21T02:34:09.925Z,0
2017-02-21T02:35:19.304Z,0
2017-02-21T02:36:28.656Z,0
2017-02-21T02:37:38.413Z,0
2017-02-21T02:38:48.209Z,0
2017-02-21T02:39:58.872Z,0
2017-02-21T02:41:09.065Z,0
2017-02-21T02:42:19.289Z,0
2017-02-21T02:43:29.039Z,0
2017-02-21T02:44:38.855Z,0
2017-02-21T02:45:48.609Z,0
2017-02-21T02:46:57.921Z,0
2017-02-21T02:48:08.102Z,0
2017-02-21T02:49:18.317Z,0
2017-02-21T02:50:27.674Z,0
2017-02-21T02:51:37.414Z,0
2017-02-21T02:52:47.609Z,0
2017-02-21T02:53:57.369Z,0
2017-02-21T02:55:06.709Z,0
2017-02-21T02:56:17.827Z,0
2017-02-21T02:57:27.145Z,0
2017-02-21T02:58:37.321Z,0
2017-02-21T02:59:47.082Z,0
2017-02-21T03:00:56.842Z,0
2017-02-21T03:02:06.656Z,0
2017-02-21T03:03:15.990Z,0
2017-02-21T03:04:26.208Z,0
2017-02-21T03:05:35.572Z,0
2017-02-21T03:06:45.342Z,0
2017-02-21T03:07:55.295Z,0
2017-02-21T03:09:05.048Z,0
2017-02-21T03:10:15.241Z,0
2017-02-21T03:11:25.002Z,0
2017-02-21T03:12:35.219Z,0
2017-02-21T03:13:44.789Z,0
2017-02-21T03:14:54.542Z,0
2017-02-21T03:16:03.883Z,0
2017-02-21T03:17:13.664Z,0
2017-02-21T03:18:22.985Z,0
2017-02-21T03:19:32.790Z,0
2017-02-21T03:20:42.130Z,0
2017-02-21T03:21:51.940Z,0
2017-02-21T03:23:01.704Z,0
2017-02-21T03:24:12.338Z,0
2017-02-21T03:25:22.144Z,0
2017-02-21T03:26:31.480Z,0
2017-02-21T03:27:40.787Z,0
2017-02-21T03:28:50.539Z,0
2017-02-21T03:29:59.849Z,0
2017-02-21T03:31:09.256Z,0
2017-02-21T03:32:19.879Z,0
2017-02-21T03:33:29.194Z,0
2017-02-21T03:34:38.945Z,0
2017-02-21T03:35:48.698Z,0
2017-02-21T03:36:58.954Z,0
2017-02-21T03:38:09.598Z,0
2017-02-21T03:39:19.353Z,0
2017-02-21T03:40:29.135Z,0
2017-02-21T03:41:39.365Z,0
2017-02-21T03:42:49.166Z,0
2017-02-21T03:43:58.510Z,0
2017-02-21T03:45:08.275Z,0
2017-02-21T03:46:18.047Z,0
2017-02-21T03:47:28.218Z,0
2017-02-21T03:48:38.027Z,0
2017-02-21T03:49:47.789Z,0
2017-02-21T03:50:57.560Z,0
2017-02-21T03:52:07.315Z,0
2017-02-21T03:53:17.500Z,0
2017-02-21T03:54:27.309Z,0
2017-02-21T03:55:37.054Z,0
2017-02-21T03:56:46.367Z,0
2017-02-21T03:57:56.132Z,0
2017-02-21T03:59:05.446Z,0
2017-02-21T04:00:14.815Z,0
2017-02-21T04:01:24.156Z,0
2017-02-21T04:02:33.466Z,0
2017-02-21T04:03:42.782Z,0
2017-02-21T04:04:52.112Z,0
2017-02-21T04:06:02.043Z,0
2017-02-21T04:07:12.240Z,0
2017-02-21T04:08:22.000Z,0
2017-02-21T04:09:32.179Z,0
2017-02-21T04:10:42.374Z,0
2017-02-21T04:11:52.191Z,0
2017-02-21T04:13:02.375Z,0
2017-02-21T04:14:12.129Z,0
2017-02-21T04:15:21.447Z,0
2017-02-21T04:16:31.192Z,0
2017-02-21T04:17:40.987Z,0
2017-02-21T04:18:52.074Z,0
2017-02-21T04:20:01.838Z,0
2017-02-21T04:21:12.024Z,0
2017-02-21T04:22:21.356Z,0
2017-02-21T04:23:30.733Z,0
2017-02-21T04:24:40.042Z,0
2017-02-21T04:25:49.819Z,0
2017-02-21T04:27:00.024Z,0
2017-02-21T04:28:10.655Z,0
2017-02-21T04:29:20.068Z,0
2017-02-21T04:30:30.321Z,0
2017-02-21T04:31:40.083Z,0
2017-02-21T04:32:50.711Z,0
2017-02-21T04:34:00.469Z,0
2017-02-21T04:35:11.261Z,0
2017-02-21T04:36:21.026Z,0
2017-02-21T04:37:31.219Z,0
2017-02-21T04:38:41.422Z,0
2017-02-21T04:39:51.163Z,0
2017-02-21T04:41:00.536Z,0
2017-02-21T04:42:10.289Z,0
2017-02-21T04:43:19.619Z,0
2017-02-21T04:44:29.820Z,0
2017-02-21T04:45:39.148Z,0
2017-02-21T04:46:48.956Z,0
2017-02-21T04:47:59.159Z,0
2017-02-21T04:49:08.946Z,0
2017-02-21T04:50:18.701Z,0
2017-02-21T04:51:28.453Z,0
2017-02-21T04:52:38.700Z,0
2017-02-21T04:53:48.911Z,0
2017-02-21T04:54:58.246Z,0
2017-02-21T04:56:07.576Z,0
2017-02-21T04:57:17.360Z,0
2017-02-21T04:58:27.670Z,0
2017-02-21T04:59:37.859Z,0
2017-02-21T05:00:48.035Z,0
2017-02-21T05:01:57.799Z,0
2017-02-21T05:03:07.541Z,0
2017-02-21T05:04:17.354Z,0
2017-02-21T05:05:27.100Z,0
2017-02-21T05:06:36.429Z,0
2017-02-21T05:07:47.062Z,0
2017-02-21T05:08:56.372Z,0
2017-02-21T05:10:06.174Z,0
2017-02-21T05:11:15.935Z,0
2017-02-21T05:12:25.259Z,0
2017-02-21T05:13:35.031Z,0
2017-02-21T05:14:45.658Z,0
2017-02-21T05:15:55.911Z,0
2017-02-21T05:17:05.217Z,0
2017-02-21T05:18:14.534Z,0
2017-02-21T05:19:24.733Z,0
2017-02-21T05:20:34.480Z,0
2017-02-21T05:21:44.301Z,0
2017-02-21T05:22:54.082Z,0
2017-02-21T05:24:03.402Z,0
2017-02-21T05:25:13.197Z,0
2017-02-21T05:26:23.418Z,0
2017-02-21T05:27:33.215Z,0
2017-02-21T05:28:42.544Z,0
2017-02-21T05:29:51.862Z,0
2017-02-21T05:31:02.493Z,0
2017-02-21T05:32:12.682Z,0
2017-02-21T05:33:22.485Z,0
2017-02-21T05:34:33.113Z,0
2017-02-21T05:35:42.883Z,0
2017-02-21T05:36:52.200Z,0
2017-02-21T05:38:01.522Z,0
2017-02-21T05:39:11.313Z,0
2017-02-21T05:40:21.961Z,0
2017-02-21T05:41:32.634Z,0
2017-02-21T05:42:42.826Z,0
2017-02-21T05:43:52.140Z,0
2017-02-21T05:45:02.379Z,0
2017-02-21T05:46:12.133Z,0
2017-02-21T05:47:21.444Z,0
2017-02-21T05:48:31.204Z,0
2017-02-21T05:49:40.953Z,0
2017-02-21T05:50:50.334Z,0
2017-02-21T05:51:59.644Z,0
2017-02-21T05:53:09.830Z,0
2017-02-21T05:54:19.578Z,0
2017-02-21T05:55:29.783Z,0
2017-02-21T05:56:39.147Z,0
2017-02-21T05:57:48.505Z,0
2017-02-21T05:58:57.829Z,0
2017-02-21T06:00:07.165Z,4
2017-02-21T06:01:17.805Z,4
2017-02-21T06:02:27.178Z,0
2017-02-21T06:03:36.966Z,4
2017-02-21T06:04:47.170Z,4
2017-02-21T06:05:56.506Z,4
2017-02-21T06:07:06.255Z,8
2017-02-21T06:08:15.651Z,8
2017-02-21T06:09:25.833Z,8
2017-02-21T06:10:35.606Z,12
2017-02-21T06:11:45.346Z,12
2017-02-21T06:12:56.417Z,16
2017-02-21T06:14:06.213Z,12
2017-02-21T06:15:15.537Z,20
2017-02-21T06:16:25.738Z,16
2017-02-21T06:17:35.497Z,28
2017-02-21T06:18:44.850Z,28
2017-02-21T06:19:54.646Z,40
2017-02-21T06:21:04.437Z,36
2017-02-21T06:22:13.762Z,48
2017-02-21T06:23:24.416Z,48
2017-02-21T06:24:34.180Z,48
2017-02-21T06:25:43.561Z,60
2017-02-21T06:26:52.879Z,68
2017-02-21T06:28:02.631Z,72
2017-02-21T06:29:13.252Z,64
2017-02-21T06:30:23.454Z,72
2017-02-21T06:31:33.279Z,96
2017-02-21T06:32:42.585Z,64
2017-02-21T06:33:52.781Z,64
2017-02-21T06:35:02.543Z,84
2017-02-21T06:36:11.856Z,100
2017-02-21T06:37:21.697Z,144
2017-02-21T06:38:31.009Z,112
2017-02-21T06:39:41.627Z,124
2017-02-21T06:40:50.944Z,152
2017-02-21T06:42:00.730Z,172
2017-02-21T06:43:10.239Z,216
2017-02-21T06:44:19.553Z,280
2017-02-21T06:45:29.746Z,268
2017-02-21T06:46:39.070Z,252
2017-02-21T06:47:49.256Z,312
2017-02-21T06:48:59.065Z,264
2017-02-21T06:50:08.388Z,376
2017-02-21T06:51:18.148Z,376
2017-02-21T06:52:27.912Z,420
2017-02-21T06:53:38.110Z,380
2017-02-21T06:54:48.363Z,416
2017-02-21T06:55:58.116Z,464
2017-02-21T06:57:07.876Z,448
2017-02-21T06:58:17.625Z,456
2017-02-21T06:59:27.379Z,236
2017-02-21T07:00:37.253Z,356
2017-02-21T07:01:47.455Z,332
2017-02-21T07:02:57.663Z,384
2017-02-21T07:04:07.001Z,432
2017-02-21T07:05:16.767Z,736
2017-02-21T07:06:26.619Z,760
2017-02-21T07:07:35.932Z,820
2017-02-21T07:08:45.256Z,768
2017-02-21T07:09:55.030Z,696
2017-02-21T07:11:04.787Z,692
2017-02-21T07:12:14.591Z,760
2017-02-21T07:13:24.354Z,836
2017-02-21T07:14:34.119Z,808
2017-02-21T07:15:43.447Z,708
2017-02-21T07:16:52.757Z,920
2017-02-21T07:18:02.557Z,952
2017-02-21T07:19:11.898Z,976
2017-02-21T07:20:21.669Z,980
2017-02-21T07:21:30.990Z,980
2017-02-21T07:22:41.603Z,1020
2017-02-21T07:23:51.856Z,1048
2017-02-21T07:25:01.613Z,1060
2017-02-21T07:26:11.379Z,1064
2017-02-21T07:27:20.704Z,1096
2017-02-21T07:28:30.471Z,1160
2017-02-21T07:29:39.944Z,1188
2017-02-21T07:30:49.704Z,1240
2017-02-21T07:31:59.444Z,1284
2017-02-21T07:33:09.241Z,1344
2017-02-21T07:34:18.995Z,1372
2017-02-21T07:35:28.558Z,1396
2017-02-21T07:36:38.757Z,1372
2017-02-21T07:37:48.078Z,1348
2017-02-21T07:38:58.307Z,1332
2017-02-21T07:40:08.499Z,1348
2017-02-21T07:41:18.304Z,1360
2017-02-21T07:42:28.055Z,1352
2017-02-21T07:43:37.389Z,1352
2017-02-21T07:44:47.136Z,1428
2017-02-21T07:45:57.322Z,1452
2017-02-21T07:47:07.295Z,1496
2017-02-21T07:48:16.628Z,1500
2017-02-21T07:49:26.418Z,1488
2017-02-21T07:50:36.206Z,1348
2017-02-21T07:51:46.827Z,1312
2017-02-21T07:52:57.072Z,1292
2017-02-21T07:54:07.263Z,1280
2017-02-21T07:55:17.023Z,1148
2017-02-21T07:56:26.771Z,1088
2017-02-21T07:57:36.514Z,1080
2017-02-21T07:58:47.198Z,1156
2017-02-21T07:59:57.405Z,1232
2017-02-21T08:01:07.184Z,1188
2017-02-21T08:02:16.967Z,1108
2017-02-21T08:03:26.726Z,1020
2017-02-21T08:04:36.969Z,984
2017-02-21T08:05:46.731Z,1028
2017-02-21T08:06:56.051Z,1108
2017-02-21T08:08:05.799Z,1192
2017-02-21T08:09:15.121Z,1300
2017-02-21T08:10:24.482Z,1244
2017-02-21T08:11:34.263Z,1392
2017-02-21T08:12:44.049Z,1904
2017-02-21T08:13:54.259Z,2280
2017-02-21T08:15:03.595Z,2184
2017-02-21T08:16:14.424Z,2308
2017-02-21T08:17:23.738Z,2772
2017-02-21T08:18:33.046Z,2228
2017-02-21T08:19:43.251Z,1928
2017-02-21T08:20:53.002Z,1876
2017-02-21T08:22:02.378Z,2440
2017-02-21T08:23:11.718Z,2648
2017-02-21T08:24:21.933Z,1912
2017-02-21T08:25:31.238Z,2036
2017-02-21T08:26:41.871Z,2744
2017-02-21T08:27:51.376Z,3464
2017-02-21T08:29:00.773Z,4408
2017-02-21T08:30:10.529Z,3824
2017-02-21T08:31:20.726Z,3140
2017-02-21T08:32:30.036Z,3552
2017-02-21T08:33:39.409Z,3052
2017-02-21T08:34:49.179Z,4584
2017-02-21T08:35:59.392Z,4008
2017-02-21T08:37:09.140Z,3404
2017-02-21T08:38:18.454Z,3052
2017-02-21T08:39:27.851Z,2680
2017-02-21T08:40:37.636Z,2392
2017-02-21T08:41:46.968Z,2548
2017-02-21T08:42:57.634Z,2360
2017-02-21T08:44:06.950Z,1928
2017-02-21T08:45:16.303Z,1776
2017-02-21T08:46:26.059Z,1884
2017-02-21T08:47:35.394Z,1760
2017-02-21T08:48:44.724Z,1984
2017-02-21T08:49:55.373Z,1540
2017-02-21T08:51:05.638Z,2040
2017-02-21T08:52:15.403Z,2796
2017-02-21T08:53:24.744Z,2644
2017-02-21T08:54:34.076Z,2660
2017-02-21T08:55:44.255Z,2292
2017-02-21T08:56:54.514Z,1516
2017-02-21T08:58:04.269Z,1960
2017-02-21T08:59:14.446Z,3256
2017-02-21T09:00:25.052Z,3116
2017-02-21T09:01:34.364Z,3128
2017-02-21T09:02:43.776Z,2324
2017-02-21T09:03:54.421Z,1696
2017-02-21T09:05:04.174Z,1708
2017-02-21T09:06:13.947Z,1768
2017-02-21T09:07:24.124Z,2112
2017-02-21T09:08:34.379Z,2356
2017-02-21T09:09:43.692Z,1940
2017-02-21T09:10:53.905Z,1996
2017-02-21T09:12:03.667Z,2000
2017-02-21T09:13:13.443Z,2380
2017-02-21T09:14:23.249Z,2376
2017-02-21T09:15:33.017Z,2040
2017-02-21T09:16:42.771Z,2556
2017-02-21T09:17:52.962Z,2024
2017-02-21T09:19:03.149Z,2152
2017-02-21T09:20:13.381Z,3100
2017-02-21T09:21:23.144Z,2668
2017-02-21T09:22:32.455Z,3948
2017-02-21T09:23:42.218Z,3460
2017-02-21T09:24:52.402Z,3760
2017-02-21T09:26:03.076Z,4080
2017-02-21T09:27:12.396Z,3416
2017-02-21T09:28:22.146Z,3372
2017-02-21T09:29:31.898Z,2300
2017-02-21T09:30:41.661Z,2036
2017-02-21T09:31:51.465Z,2440
2017-02-21T09:33:01.243Z,2368
2017-02-21T09:34:10.551Z,2896
2017-02-21T09:35:20.301Z,2756
2017-02-21T09:36:30.073Z,3156
2017-02-21T09:37:40.531Z,3044
2017-02-21T09:38:50.281Z,3032
2017-02-21T09:40:00.025Z,3360
2017-02-21T09:41:09.815Z,2864
2017-02-21T09:42:19.592Z,2524
2017-02-21T09:43:29.392Z,3436
2017-02-21T09:44:38.728Z,3428
2017-02-21T09:45:48.916Z,4376
2017-02-21T09:46:58.232Z,4392
2017-02-21T09:48:07.985Z,4388
2017-02-21T09:49:17.398Z,3500
2017-02-21T09:50:26.743Z,4296
2017-02-21T09:51:36.077Z,6176
2017-02-21T09:52:45.854Z,6544
2017-02-21T09:53:56.475Z,5628
2017-02-21T09:55:06.956Z,6012
2017-02-21T09:56:16.301Z,6196
2017-02-21T09:57:26.073Z,4876
2017-02-21T09:58:35.420Z,3496
2017-02-21T09:59:45.600Z,5744
2017-02-21T10:00:55.840Z,7612
2017-02-21T10:02:05.635Z,5732
2017-02-21T10:03:15.011Z,5060
2017-02-21T10:04:24.769Z,2932
2017-02-21T10:05:34.095Z,2504
2017-02-21T10:06:43.456Z,3576
2017-02-21T10:07:53.217Z,4932
2017-02-21T10:09:03.006Z,5480
2017-02-21T10:10:12.765Z,4876
2017-02-21T10:11:22.076Z,4120
2017-02-21T10:12:31.442Z,3572
2017-02-21T10:13:40.801Z,3628
2017-02-21T10:14:50.998Z,3036
2017-02-21T10:16:01.203Z,2280
2017-02-21T10:17:11.381Z,2220
2017-02-21T10:18:20.754Z,2244
2017-02-21T10:19:30.957Z,1424
2017-02-21T10:20:41.173Z,1872
2017-02-21T10:21:50.955Z,2252
2017-02-21T10:23:00.703Z,3800
2017-02-21T10:24:11.538Z,4980
2017-02-21T10:25:21.313Z,3920
2017-02-21T10:26:31.531Z,3424
2017-02-21T10:27:42.164Z,2748
2017-02-21T10:28:51.935Z,4548
2017-02-21T10:30:01.318Z,3452
2017-02-21T10:31:11.533Z,3880
2017-02-21T10:32:20.870Z,3420
2017-02-21T10:33:31.499Z,4300
2017-02-21T10:34:41.257Z,3996
2017-02-21T10:35:50.649Z,2464
2017-02-21T10:36:59.978Z,2024
2017-02-21T10:38:10.188Z,1840
2017-02-21T10:39:19.944Z,1124
2017-02-21T10:40:29.713Z,1324
2017-02-21T10:41:39.960Z,2360
2017-02-21T10:42:50.150Z,1460
2017-02-21T10:43:59.909Z,1000
2017-02-21T10:45:09.256Z,1512
2017-02-21T10:46:19.023Z,1596
2017-02-21T10:47:28.850Z,2420
2017-02-21T10:48:39.047Z,3412
2017-02-21T10:49:48.360Z,3528
2017-02-21T10:50:58.129Z,1920
2017-02-21T10:52:07.866Z,1824
2017-02-21T10:53:17.686Z,1828
2017-02-21T10:54:27.901Z,1864
2017-02-21T10:55:37.658Z,1844
2017-02-21T10:56:47.406Z,2556
2017-02-21T10:57:56.781Z,2432
2017-02-21T10:59:07.476Z,1956
2017-02-21T11:00:18.125Z,1696
2017-02-21T11:01:28.765Z,1948
2017-02-21T11:02:38.514Z,1576
2017-02-21T11:03:49.159Z,1176
2017-02-21T11:04:58.965Z,1244
2017-02-21T11:06:08.729Z,1668
2017-02-21T11:07:18.065Z,1572
2017-02-21T11:08:28.306Z,1744
2017-02-21T11:09:38.516Z,3000
2017-02-21T11:10:49.237Z,2340
2017-02-21T11:11:59.448Z,4420
2017-02-21T11:13:10.088Z,5504
2017-02-21T11:14:20.726Z,6128
2017-02-21T11:15:30.926Z,5000
2017-02-21T11:16:40.751Z,6264
2017-02-21T11:17:50.962Z,8188
2017-02-21T11:19:00.730Z,7944
2017-02-21T11:20:10.915Z,7504
2017-02-21T11:21:21.566Z,7728
2017-02-21T11:22:31.379Z,6416
2017-02-21T11:23:41.576Z,5936
2017-02-21T11:24:51.324Z,5892
2017-02-21T11:26:00.670Z,5896
2017-02-21T11:27:09.992Z,4540
2017-02-21T11:28:20.268Z,7464
2017-02-21T11:29:30.482Z,4876
2017-02-21T11:30:40.679Z,4720
2017-02-21T11:31:50.003Z,5228
2017-02-21T11:33:00.650Z,4344
2017-02-21T11:34:10.510Z,4120
2017-02-21T11:35:20.714Z,5152
2017-02-21T11:36:30.496Z,5784
2017-02-21T11:37:39.803Z,6164
2017-02-21T11:38:49.126Z,4980
2017-02-21T11:39:58.945Z,4768
2017-02-21T11:41:08.711Z,5212
2017-02-21T11:42:18.902Z,4632
2017-02-21T11:43:28.667Z,4828
2017-02-21T11:44:38.406Z,4156
2017-02-21T11:45:48.230Z,3240
2017-02-21T11:46:58.415Z,3536
2017-02-21T11:48:07.750Z,2856
2017-02-21T11:49:17.959Z,2804
2017-02-21T11:50:27.715Z,2568
2017-02-21T11:51:37.989Z,2544
2017-02-21T11:52:48.198Z,2948
2017-02-21T11:53:57.959Z,3144
2017-02-21T11:55:07.265Z,3464
2017-02-21T11:56:16.601Z,4192
2017-02-21T11:57:26.860Z,3600
2017-02-21T11:58:36.629Z,2544
2017-02-21T11:59:47.306Z,2452
2017-02-21T12:00:56.619Z,2548
2017-02-21T12:02:06.831Z,2180
2017-02-21T12:03:16.622Z,1868
2017-02-21T12:04:26.874Z,1992
2017-02-21T12:05:36.644Z,2148
2017-02-21T12:06:46.858Z,2400
2017-02-21T12:07:57.041Z,2760
2017-02-21T12:09:08.216Z,3036
2017-02-21T12:10:18.021Z,3704
2017-02-21T12:11:28.221Z,4340
2017-02-21T12:12:38.412Z,4684
2017-02-21T12:13:48.176Z,4976
2017-02-21T12:14:57.565Z,5024
2017-02-21T12:16:08.204Z,5168
2017-02-21T12:17:17.959Z,4560
2017-02-21T12:18:28.585Z,4044
2017-02-21T12:19:39.243Z,3204
2017-02-21T12:20:49.044Z,3576
2017-02-21T12:21:59.273Z,3608
2017-02-21T12:23:09.023Z,3732
2017-02-21T12:24:19.226Z,3528
2017-02-21T12:25:28.541Z,4116
2017-02-21T12:26:38.398Z,3984
2017-02-21T12:27:47.708Z,3452
2017-02-21T12:28:57.452Z,3172
2017-02-21T12:30:07.672Z,3136
2017-02-21T12:31:18.319Z,2892
2017-02-21T12:32:28.557Z,3424
2017-02-21T12:33:38.310Z,3572
2017-02-21T12:34:48.097Z,3524
2017-02-21T12:35:57.864Z,3540
2017-02-21T12:37:07.612Z,3888
2017-02-21T12:38:17.423Z,4728
2017-02-21T12:39:26.736Z,5144
2017-02-21T12:40:36.067Z,4808
2017-02-21T12:41:45.830Z,4812
2017-02-21T12:42:55.603Z,4844
2017-02-21T12:44:05.400Z,4744
2017-02-21T12:45:15.166Z,4876
2017-02-21T12:46:25.801Z,4880
2017-02-21T12:47:35.993Z,5368
2017-02-21T12:48:46.205Z,5412
2017-02-21T12:49:56.621Z,5324
2017-02-21T12:51:06.410Z,5688
2017-02-21T12:52:16.617Z,5444
2017-02-21T12:53:26.850Z,5228
2017-02-21T12:54:37.060Z,5332
2017-02-21T12:55:47.312Z,4836
2017-02-21T12:56:57.512Z,4440
2017-02-21T12:58:07.298Z,4948
2017-02-21T12:59:17.504Z,4780
2017-02-21T13:00:27.254Z,4472
2017-02-21T13:01:37.626Z,4148
2017-02-21T13:02:47.402Z,4184
2017-02-21T13:03:57.583Z,3816
2017-02-21T13:05:08.244Z,2888
2017-02-21T13:06:17.988Z,2472
2017-02-21T13:07:27.371Z,2416
2017-02-21T13:08:37.568Z,2696
2017-02-21T13:09:47.751Z,2912
2017-02-21T13:10:57.104Z,2432
2017-02-21T13:12:06.876Z,1892
2017-02-21T13:13:16.838Z,1120
2017-02-21T13:14:26.160Z,1812
2017-02-21T13:15:35.927Z,1336
2017-02-21T13:16:45.236Z,840
2017-02-21T13:17:55.883Z,716
2017-02-21T13:19:06.137Z,628
2017-02-21T13:20:15.492Z,608
2017-02-21T13:21:25.707Z,836
2017-02-21T13:22:36.356Z,1000
2017-02-21T13:23:46.545Z,1448
2017-02-21T13:24:56.010Z,1368
2017-02-21T13:26:05.319Z,1532
2017-02-21T13:27:15.527Z,1404
2017-02-21T13:28:26.163Z,1152
2017-02-21T13:29:35.919Z,1292
2017-02-21T13:30:45.916Z,1296
2017-02-21T13:31:56.162Z,1068
2017-02-21T13:33:06.350Z,1456
2017-02-21T13:34:15.655Z,3372
2017-02-21T13:35:25.411Z,4352
2017-02-21T13:36:36.092Z,4240
2017-02-21T13:37:46.275Z,5492
2017-02-21T13:38:56.035Z,6124
2017-02-21T13:40:06.245Z,6256
2017-02-21T13:41:15.574Z,6620
2017-02-21T13:42:24.974Z,6220
2017-02-21T13:43:35.183Z,5660
2017-02-21T13:44:45.385Z,5488
2017-02-21T13:45:54.705Z,2912
2017-02-21T13:47:04.467Z,2732
2017-02-21T13:48:14.715Z,2632
2017-02-21T13:49:24.461Z,2576
2017-02-21T13:50:34.230Z,2532
2017-02-21T13:51:44.456Z,3048
2017-02-21T13:52:53.773Z,3032
2017-02-21T13:54:04.025Z,2704
2017-02-21T13:55:14.234Z,2268
2017-02-21T13:56:23.572Z,2396
2017-02-21T13:57:34.209Z,2768
2017-02-21T13:58:43.970Z,2948
2017-02-21T13:59:53.799Z,2984
2017-02-21T14:01:03.588Z,3048
2017-02-21T14:02:14.234Z,2528
2017-02-21T14:03:24.436Z,2816
2017-02-21T14:04:34.624Z,2776
2017-02-21T14:05:44.433Z,2416
2017-02-21T14:06:54.639Z,2676
2017-02-21T14:08:04.415Z,3356
2017-02-21T14:09:13.733Z,3124
2017-02-21T14:10:24.374Z,2560
2017-02-21T14:11:34.195Z,2376
2017-02-21T14:12:43.936Z,1920
2017-02-21T14:13:54.145Z,2216
2017-02-21T14:15:04.365Z,3548
2017-02-21T14:16:14.586Z,4308
2017-02-21T14:17:24.389Z,3864
2017-02-21T14:18:34.594Z,3776
2017-02-21T14:19:45.214Z,3540
2017-02-21T14:20:54.956Z,2820
2017-02-21T14:22:04.709Z,2932
2017-02-21T14:23:14.517Z,3384
2017-02-21T14:24:24.700Z,3236
2017-02-21T14:25:34.469Z,2812
2017-02-21T14:26:44.658Z,1668
2017-02-21T14:27:54.871Z,1356
2017-02-21T14:29:05.257Z,1488
2017-02-21T14:30:14.586Z,1684
2017-02-21T14:31:24.367Z,1728
2017-02-21T14:32:33.668Z,1840
2017-02-21T14:33:43.429Z,2296
2017-02-21T14:34:52.801Z,2116
2017-02-21T14:36:03.004Z,1832
2017-02-21T14:37:12.757Z,1736
2017-02-21T14:38:22.934Z,1728
2017-02-21T14:40:41.004Z,1392
2017-02-21T14:41:50.321Z,1440
2017-02-21T14:43:00.073Z,1512
2017-02-21T14:44:10.698Z,1408
2017-02-21T14:45:20.462Z,1284
2017-02-21T14:46:30.022Z,1232
2017-02-21T14:47:39.327Z,1228
2017-02-21T14:48:49.081Z,1268
2017-02-21T14:49:59.276Z,1308
2017-02-21T14:51:09.918Z,1336
2017-02-21T14:52:19.823Z,1428
2017-02-21T14:53:30.485Z,1264
2017-02-21T14:54:40.237Z,1132
2017-02-21T14:55:50.011Z,1064
2017-02-21T14:57:00.205Z,1060
2017-02-21T14:58:10.005Z,1052
2017-02-21T14:59:19.322Z,1032
2017-02-21T15:00:29.080Z,1068
2017-02-21T15:01:38.838Z,1136
2017-02-21T15:02:49.023Z,1192
2017-02-21T15:03:59.272Z,1212
2017-02-21T15:05:09.069Z,1188
2017-02-21T15:06:19.282Z,1116
2017-02-21T15:07:28.635Z,1076
2017-02-21T15:08:37.967Z,1056
2017-02-21T15:09:48.229Z,1076
2017-02-21T15:10:57.543Z,1168
2017-02-21T15:12:07.728Z,1268
2017-02-21T15:13:17.077Z,1420
2017-02-21T15:14:26.831Z,1452
2017-02-21T15:15:36.676Z,1464
2017-02-21T15:16:45.991Z,1604
2017-02-21T15:17:56.198Z,1640
2017-02-21T15:19:06.007Z,1536
2017-02-21T15:20:15.335Z,1372
2017-02-21T15:21:24.698Z,1184
2017-02-21T15:22:35.774Z,1044
2017-02-21T15:23:45.522Z,1080
2017-02-21T15:24:56.345Z,1060
2017-02-21T15:26:06.114Z,976
2017-02-21T15:27:15.906Z,968
2017-02-21T15:28:32.960Z,972
2017-02-21T15:29:47.546Z,984
2017-02-21T15:31:02.376Z,980
2017-02-21T15:32:12.176Z,976
2017-02-21T15:33:21.938Z,968
2017-02-21T15:34:32.135Z,956
2017-02-21T15:35:42.763Z,952
2017-02-21T15:36:52.950Z,948
2017-02-21T15:38:03.221Z,948
2017-02-21T15:39:13.450Z,952
2017-02-21T15:40:23.240Z,996
2017-02-21T15:41:33.006Z,1040
2017-02-21T15:42:43.386Z,1116
2017-02-21T15:43:53.199Z,1156
2017-02-21T15:45:02.538Z,1072
2017-02-21T15:46:12.343Z,968
2017-02-21T15:47:22.123Z,892
2017-02-21T15:48:32.321Z,860
2017-02-21T15:49:41.883Z,832
2017-02-21T15:50:52.523Z,760
2017-02-21T15:52:03.152Z,692
2017-02-21T15:53:12.900Z,672
2017-02-21T15:54:23.531Z,656
2017-02-21T15:55:33.370Z,644
2017-02-21T15:56:42.714Z,628
2017-02-21T15:57:52.475Z,616
2017-02-21T15:59:02.256Z,604
2017-02-21T16:00:11.577Z,596
2017-02-21T16:01:22.537Z,596
2017-02-21T16:02:32.288Z,568
2017-02-21T16:03:42.523Z,544
2017-02-21T16:04:52.758Z,532
2017-02-21T16:06:02.094Z,528
2017-02-21T16:07:11.924Z,524
2017-02-21T16:08:21.248Z,512
2017-02-21T16:09:31.474Z,500
2017-02-21T16:10:41.231Z,484
2017-02-21T16:11:50.969Z,468
2017-02-21T16:13:01.221Z,448